DAUO/ELU METAR and TAF weather

Enter ICAO airport designator
Station Type Date Time Source
DAUO METAR 2019/12/13 01:00 UTC NOAA

DAUO 130100Z 23006KT CAVOK 09/02 Q1015


Station Type Date Time Source
DAUO Decoded METAR 2019/12/13 01:00 UTC NOAA

El Oued, Algeria (DAUO) 33-30N 006-07E 63M
Dec 12, 2019 - 08:00 PM EST / 2019.12.13 0100 UTC
Wind: from the SW (230 degrees) at 7 MPH (6 KT):0
Visibility: greater than 7 mile(s):0
Temperature: 48 F (9 C)
Dew Point: 35 F (2 C)
Relative Humidity: 61%
Pressure (altimeter): 29.97 in. Hg (1015 hPa)
ob: DAUO 130100Z 23006KT CAVOK 09/02 Q1015
cycle: 1

Station Type Date Time Source
DAUO TAF 2017/11/09 18:03 UTC NOAA

TAF DAUO 091700Z 0918/1009 28010KT 9999 SCT033 SCT100 PROB30
TEMPO 0918/0924 28015G25KT 5000 -TSRA FEW036CB

Example: see airport list